sensor_id;sensor_type;location;lat;lon;timestamp;temperature;humidity
13854;DHT22;6997;51.782;8.824;2023-05-09T00:00:44;14.80;99.90
13854;DHT22;6997;51.782;8.824;2023-05-09T00:03:11;14.80;99.90
13854;DHT22;6997;51.782;8.824;2023-05-09T00:05:40;14.70;99.90
13854;DHT22;6997;51.782;8.824;2023-05-09T00:10:33;14.60;99.90
13854;DHT22;6997;51.782;8.824;2023-05-09T00:15:25;14.50;99.90
13854;DHT22;6997;51.782;8.824;2023-05-09T00:17:53;14.40;99.90
13854;DHT22;6997;51.782;8.824;2023-05-09T00:20:20;14.40;99.90
13854;DHT22;6997;51.782;8.824;2023-05-09T00:25:13;14.40;99.90
13854;DHT22;6997;51.782;8.824;2023-05-09T00:27:40;14.40;99.90
13854;DHT22;6997;51.782;8.824;2023-05-09T00:30:06;14.30;99.90
13854;DHT22;6997;51.782;8.824;2023-05-09T00:32:34;14.20;99.90
13854;DHT22;6997;51.782;8.824;2023-05-09T00:35:01;14.20;99.90
13854;DHT22;6997;51.782;8.824;2023-05-09T00:37:29;14.10;99.90
13854;DHT22;6997;51.782;8.824;2023-05-09T00:39:55;14.00;99.90
13854;DHT22;6997;51.782;8.824;2023-05-09T00:44:48;13.80;99.90
13854;DHT22;6997;51.782;8.824;2023-05-09T00:47:14;13.90;99.90
13854;DHT22;6997;51.782;8.824;2023-05-09T00:49:41;13.80;99.90
13854;DHT22;6997;51.782;8.824;2023-05-09T00:52:07;13.70;99.90
13854;DHT22;6997;51.782;8.824;2023-05-09T00:54:34;13.60;99.90
13854;DHT22;6997;51.782;8.824;2023-05-09T00:57:00;13.50;99.90
13854;DHT22;6997;51.782;8.824;2023-05-09T00:59:27;13.50;99.90
13854;DHT22;6997;51.782;8.824;2023-05-09T01:01:53;13.50;99.90
13854;DHT22;6997;51.782;8.824;2023-05-09T01:04:19;13.60;99.90
13854;DHT22;6997;51.782;8.824;2023-05-09T01:25:27;13.70;99.90
13854;DHT22;6997;51.782;8.824;2023-05-09T01:28:12;13.80;99.90
13854;DHT22;6997;51.782;8.824;2023-05-09T01:30:43;13.60;99.90
13854;DHT22;6997;51.782;8.824;2023-05-09T01:33:12;13.50;99.90
13854;DHT22;6997;51.782;8.824;2023-05-09T01:35:43;13.50;99.90
13854;DHT22;6997;51.782;8.824;2023-05-09T01:38:17;13.50;99.90
13854;DHT22;6997;51.782;8.824;2023-05-09T01:40:46;13.40;99.90
13854;DHT22;6997;51.782;8.824;2023-05-09T01:43:16;13.40;99.90
13854;DHT22;6997;51.782;8.824;2023-05-09T01:45:44;13.40;99.90
13854;DHT22;6997;51.782;8.824;2023-05-09T01:48:11;13.20;99.90
13854;DHT22;6997;51.782;8.824;2023-05-09T01:50:39;13.20;99.90
13854;DHT22;6997;51.782;8.824;2023-05-09T01:53:07;13.10;99.90
13854;DHT22;6997;51.782;8.824;2023-05-09T01:58:04;13.20;99.90
13854;DHT22;6997;51.782;8.824;2023-05-09T02:00:34;13.30;99.90
13854;DHT22;6997;51.782;8.824;2023-05-09T02:03:02;13.40;99.90
13854;DHT22;6997;51.782;8.824;2023-05-09T02:05:30;13.40;99.90
13854;DHT22;6997;51.782;8.824;2023-05-09T02:07:57;13.40;99.90
13854;DHT22;6997;51.782;8.824;2023-05-09T02:10:26;13.30;99.90
13854;DHT22;6997;51.782;8.824;2023-05-09T02:12:53;13.30;99.90
13854;DHT22;6997;51.782;8.824;2023-05-09T02:15:20;13.30;99.90
13854;DHT22;6997;51.782;8.824;2023-05-09T02:17:48;13.30;99.90
13854;DHT22;6997;51.782;8.824;2023-05-09T02:20:15;13.30;99.90
13854;DHT22;6997;51.782;8.824;2023-05-09T02:22:42;13.40;99.90
13854;DHT22;6997;51.782;8.824;2023-05-09T02:25:11;13.40;99.90
13854;DHT22;6997;51.782;8.824;2023-05-09T02:30:18;13.40;99.90
13854;DHT22;6997;51.782;8.824;2023-05-09T02:32:50;13.40;99.90
13854;DHT22;6997;51.782;8.824;2023-05-09T02:35:19;13.40;99.90
13854;DHT22;6997;51.782;8.824;2023-05-09T02:37:46;13.40;99.90
13854;DHT22;6997;51.782;8.824;2023-05-09T02:42:39;13.40;99.90
13854;DHT22;6997;51.782;8.824;2023-05-09T02:45:06;13.40;99.90
13854;DHT22;6997;51.782;8.824;2023-05-09T02:47:32;13.40;99.90
13854;DHT22;6997;51.782;8.824;2023-05-09T02:49:58;13.40;99.90
13854;DHT22;6997;51.782;8.824;2023-05-09T02:52:24;13.40;99.90
13854;DHT22;6997;51.782;8.824;2023-05-09T02:54:51;13.30;99.90
13854;DHT22;6997;51.782;8.824;2023-05-09T02:57:17;13.40;99.90
13854;DHT22;6997;51.782;8.824;2023-05-09T02:59:44;13.40;99.90
13854;DHT22;6997;51.782;8.824;2023-05-09T03:02:10;13.30;99.90
13854;DHT22;6997;51.782;8.824;2023-05-09T03:04:36;13.20;99.90
13854;DHT22;6997;51.782;8.824;2023-05-09T03:07:03;13.20;99.90
13854;DHT22;6997;51.782;8.824;2023-05-09T03:09:30;13.10;99.90
13854;DHT22;6997;51.782;8.824;2023-05-09T03:11:56;13.20;99.90
13854;DHT22;6997;51.782;8.824;2023-05-09T03:16:49;13.20;99.90
13854;DHT22;6997;51.782;8.824;2023-05-09T03:19:15;13.20;99.90
13854;DHT22;6997;51.782;8.824;2023-05-09T03:24:09;13.10;99.90
13854;DHT22;6997;51.782;8.824;2023-05-09T03:29:03;13.20;99.90
13854;DHT22;6997;51.782;8.824;2023-05-09T03:31:30;13.30;99.90
13854;DHT22;6997;51.782;8.824;2023-05-09T03:34:28;13.30;99.90
13854;DHT22;6997;51.782;8.824;2023-05-09T03:39:20;13.50;99.90
13854;DHT22;6997;51.782;8.824;2023-05-09T03:41:46;13.60;99.90
13854;DHT22;6997;51.782;8.824;2023-05-09T03:46:38;13.70;99.90
13854;DHT22;6997;51.782;8.824;2023-05-09T03:49:04;13.60;99.90
13854;DHT22;6997;51.782;8.824;2023-05-09T03:51:31;13.60;99.90
13854;DHT22;6997;51.782;8.824;2023-05-09T03:53:57;13.70;99.90
13854;DHT22;6997;51.782;8.824;2023-05-09T03:58:50;13.80;99.90
13854;DHT22;6997;51.782;8.824;2023-05-09T04:01:17;13.90;99.90
13854;DHT22;6997;51.782;8.824;2023-05-09T04:03:43;14.00;99.90
13854;DHT22;6997;51.782;8.824;2023-05-09T04:06:09;13.90;99.90
13854;DHT22;6997;51.782;8.824;2023-05-09T04:13:28;13.80;99.90
13854;DHT22;6997;51.782;8.824;2023-05-09T04:20:49;13.80;99.90
13854;DHT22;6997;51.782;8.824;2023-05-09T04:25:41;14.00;99.90
13854;DHT22;6997;51.782;8.824;2023-05-09T04:28:07;14.00;99.90
13854;DHT22;6997;51.782;8.824;2023-05-09T04:30:33;14.00;99.90
13854;DHT22;6997;51.782;8.824;2023-05-09T04:33:00;14.10;99.90
13854;DHT22;6997;51.782;8.824;2023-05-09T04:35:27;14.10;99.90
13854;DHT22;6997;51.782;8.824;2023-05-09T04:37:53;14.30;99.90
13854;DHT22;6997;51.782;8.824;2023-05-09T04:40:19;14.40;99.90
13854;DHT22;6997;51.782;8.824;2023-05-09T04:42:48;14.30;99.90
13854;DHT22;6997;51.782;8.824;2023-05-09T04:45:16;14.30;99.90
13854;DHT22;6997;51.782;8.824;2023-05-09T04:47:43;14.20;99.90
13854;DHT22;6997;51.782;8.824;2023-05-09T04:50:11;14.20;99.90
13854;DHT22;6997;51.782;8.824;2023-05-09T04:52:39;14.30;99.90
13854;DHT22;6997;51.782;8.824;2023-05-09T05:19:01;14.00;99.90
13854;DHT22;6997;51.782;8.824;2023-05-09T05:21:27;14.20;99.90
13854;DHT22;6997;51.782;8.824;2023-05-09T05:23:54;14.50;99.90
13854;DHT22;6997;51.782;8.824;2023-05-09T05:26:50;14.50;99.90
13854;DHT22;6997;51.782;8.824;2023-05-09T05:35:36;14.70;99.90
13854;DHT22;6997;51.782;8.824;2023-05-09T05:38:04;14.80;99.90
13854;DHT22;6997;51.782;8.824;2023-05-09T05:40:33;14.80;99.90
13854;DHT22;6997;51.782;8.824;2023-05-09T06:00:11;14.40;99.90
13854;DHT22;6997;51.782;8.824;2023-05-09T06:02:41;14.30;99.90
13854;DHT22;6997;51.782;8.824;2023-05-09T06:05:09;14.30;99.90
13854;DHT22;6997;51.782;8.824;2023-05-09T06:10:02;14.30;99.90
13854;DHT22;6997;51.782;8.824;2023-05-09T06:12:29;14.40;99.90
13854;DHT22;6997;51.782;8.824;2023-05-09T06:14:55;14.40;99.90
13854;DHT22;6997;51.782;8.824;2023-05-09T06:19:48;14.50;99.90
13854;DHT22;6997;51.782;8.824;2023-05-09T06:24:40;14.60;99.90
13854;DHT22;6997;51.782;8.824;2023-05-09T06:27:06;14.60;99.90
13854;DHT22;6997;51.782;8.824;2023-05-09T06:29:34;14.80;99.90
13854;DHT22;6997;51.782;8.824;2023-05-09T06:32:00;15.00;99.90
13854;DHT22;6997;51.782;8.824;2023-05-09T06:34:26;15.20;99.90
13854;DHT22;6997;51.782;8.824;2023-05-09T06:36:51;15.20;99.90
13854;DHT22;6997;51.782;8.824;2023-05-09T06:39:17;15.40;99.90
13854;DHT22;6997;51.782;8.824;2023-05-09T06:41:43;15.50;99.90
13854;DHT22;6997;51.782;8.824;2023-05-09T06:44:10;15.60;99.90
13854;DHT22;6997;51.782;8.824;2023-05-09T06:46:36;15.70;99.90
13854;DHT22;6997;51.782;8.824;2023-05-09T06:49:02;15.90;99.90
13854;DHT22;6997;51.782;8.824;2023-05-09T06:51:28;15.80;99.90
13854;DHT22;6997;51.782;8.824;2023-05-09T06:56:20;16.00;99.90
13854;DHT22;6997;51.782;8.824;2023-05-09T06:58:47;16.00;99.90
13854;DHT22;6997;51.782;8.824;2023-05-09T07:01:13;16.00;99.90
13854;DHT22;6997;51.782;8.824;2023-05-09T07:06:04;16.00;99.90
13854;DHT22;6997;51.782;8.824;2023-05-09T07:08:31;16.20;99.90
13854;DHT22;6997;51.782;8.824;2023-05-09T07:10:58;16.30;99.90
13854;DHT22;6997;51.782;8.824;2023-05-09T07:15:51;16.70;99.90
13854;DHT22;6997;51.782;8.824;2023-05-09T07:18:17;16.80;99.90
13854;DHT22;6997;51.782;8.824;2023-05-09T07:25:35;17.00;99.90
13854;DHT22;6997;51.782;8.824;2023-05-09T07:28:00;17.20;99.90
13854;DHT22;6997;51.782;8.824;2023-05-09T07:32:53;17.30;99.90
13854;DHT22;6997;51.782;8.824;2023-05-09T07:35:19;17.40;99.90
13854;DHT22;6997;51.782;8.824;2023-05-09T07:37:45;17.30;99.90
13854;DHT22;6997;51.782;8.824;2023-05-09T07:40:11;17.40;99.90
13854;DHT22;6997;51.782;8.824;2023-05-09T07:42:37;17.50;99.90
13854;DHT22;6997;51.782;8.824;2023-05-09T07:45:03;17.60;99.90
13854;DHT22;6997;51.782;8.824;2023-05-09T07:49:58;17.60;99.90
13854;DHT22;6997;51.782;8.824;2023-05-09T07:52:24;17.60;99.90
13854;DHT22;6997;51.782;8.824;2023-05-09T07:54:50;17.70;99.90
13854;DHT22;6997;51.782;8.824;2023-05-09T07:57:16;17.70;99.90
13854;DHT22;6997;51.782;8.824;2023-05-09T07:59:44;17.90;99.90
13854;DHT22;6997;51.782;8.824;2023-05-09T08:04:41;17.90;99.90
13854;DHT22;6997;51.782;8.824;2023-05-09T08:09:34;17.90;99.90
13854;DHT22;6997;51.782;8.824;2023-05-09T08:12:01;17.90;99.90
13854;DHT22;6997;51.782;8.824;2023-05-09T08:16:53;17.70;99.90
13854;DHT22;6997;51.782;8.824;2023-05-09T08:24:14;17.60;99.90
13854;DHT22;6997;51.782;8.824;2023-05-09T08:29:06;17.40;99.90
13854;DHT22;6997;51.782;8.824;2023-05-09T08:31:33;17.30;99.90
13854;DHT22;6997;51.782;8.824;2023-05-09T08:33:59;17.40;99.90
13854;DHT22;6997;51.782;8.824;2023-05-09T08:41:25;17.60;99.90
13854;DHT22;6997;51.782;8.824;2023-05-09T08:43:54;17.60;99.90
13854;DHT22;6997;51.782;8.824;2023-05-09T08:46:35;17.70;99.90
13854;DHT22;6997;51.782;8.824;2023-05-09T08:49:04;17.60;99.90
13854;DHT22;6997;51.782;8.824;2023-05-09T08:51:34;17.60;99.90
13854;DHT22;6997;51.782;8.824;2023-05-09T08:54:01;17.60;99.90
13854;DHT22;6997;51.782;8.824;2023-05-09T08:56:31;17.60;99.90
13854;DHT22;6997;51.782;8.824;2023-05-09T09:01:33;18.00;99.90
13854;DHT22;6997;51.782;8.824;2023-05-09T09:04:07;18.10;99.90
13854;DHT22;6997;51.782;8.824;2023-05-09T09:06:34;18.10;99.90
13854;DHT22;6997;51.782;8.824;2023-05-09T09:09:01;18.30;99.90
13854;DHT22;6997;51.782;8.824;2023-05-09T09:11:30;18.30;99.90
13854;DHT22;6997;51.782;8.824;2023-05-09T09:14:00;18.30;99.90
13854;DHT22;6997;51.782;8.824;2023-05-09T09:16:27;18.50;99.90
13854;DHT22;6997;51.782;8.824;2023-05-09T09:18:54;18.60;99.90
13854;DHT22;6997;51.782;8.824;2023-05-09T09:21:21;18.60;99.90
13854;DHT22;6997;51.782;8.824;2023-05-09T09:23:48;18.80;99.90
13854;DHT22;6997;51.782;8.824;2023-05-09T09:26:15;19.00;99.90
13854;DHT22;6997;51.782;8.824;2023-05-09T09:28:41;18.70;99.90
13854;DHT22;6997;51.782;8.824;2023-05-09T09:31:21;18.50;99.90
13854;DHT22;6997;51.782;8.824;2023-05-09T09:33:48;18.40;99.90
13854;DHT22;6997;51.782;8.824;2023-05-09T09:36:14;18.60;99.90
13854;DHT22;6997;51.782;8.824;2023-05-09T09:38:41;18.90;99.90
13854;DHT22;6997;51.782;8.824;2023-05-09T09:41:08;19.00;99.90
13854;DHT22;6997;51.782;8.824;2023-05-09T09:43:35;19.00;99.90
13854;DHT22;6997;51.782;8.824;2023-05-09T09:46:02;19.40;99.90
13854;DHT22;6997;51.782;8.824;2023-05-09T09:48:34;19.60;99.90
13854;DHT22;6997;51.782;8.824;2023-05-09T09:51:07;19.60;99.90
13854;DHT22;6997;51.782;8.824;2023-05-09T09:53:41;19.30;99.90
13854;DHT22;6997;51.782;8.824;2023-05-09T09:56:07;19.40;99.90
13854;DHT22;6997;51.782;8.824;2023-05-09T10:01:08;19.40;99.90
13854;DHT22;6997;51.782;8.824;2023-05-09T10:03:43;19.60;99.90
13854;DHT22;6997;51.782;8.824;2023-05-09T10:06:13;19.90;99.90
13854;DHT22;6997;51.782;8.824;2023-05-09T10:08:40;20.00;99.90
13854;DHT22;6997;51.782;8.824;2023-05-09T10:11:06;20.20;99.90
13854;DHT22;6997;51.782;8.824;2023-05-09T10:13:35;20.30;99.90
13854;DHT22;6997;51.782;8.824;2023-05-09T10:16:02;20.50;99.90
13854;DHT22;6997;51.782;8.824;2023-05-09T10:18:29;20.60;99.90
13854;DHT22;6997;51.782;8.824;2023-05-09T10:20:58;20.70;99.90
13854;DHT22;6997;51.782;8.824;2023-05-09T10:23:27;21.00;99.90
13854;DHT22;6997;51.782;8.824;2023-05-09T10:26:04;21.10;99.90
13854;DHT22;6997;51.782;8.824;2023-05-09T10:28:32;21.10;99.90
13854;DHT22;6997;51.782;8.824;2023-05-09T10:31:11;21.10;99.90
13854;DHT22;6997;51.782;8.824;2023-05-09T10:33:41;20.80;99.90
13854;DHT22;6997;51.782;8.824;2023-05-09T10:36:08;20.60;99.90
13854;DHT22;6997;51.782;8.824;2023-05-09T10:38:35;20.70;99.90
13854;DHT22;6997;51.782;8.824;2023-05-09T10:41:02;20.80;99.90
13854;DHT22;6997;51.782;8.824;2023-05-09T10:43:28;20.90;99.90
13854;DHT22;6997;51.782;8.824;2023-05-09T10:45:54;20.80;99.90
13854;DHT22;6997;51.782;8.824;2023-05-09T10:48:21;20.70;99.90
13854;DHT22;6997;51.782;8.824;2023-05-09T10:53:13;20.90;99.90
13854;DHT22;6997;51.782;8.824;2023-05-09T10:55:55;21.10;99.90
13854;DHT22;6997;51.782;8.824;2023-05-09T10:58:25;21.30;99.90
13854;DHT22;6997;51.782;8.824;2023-05-09T11:00:53;21.10;99.90
13854;DHT22;6997;51.782;8.824;2023-05-09T11:05:48;21.30;99.90
13854;DHT22;6997;51.782;8.824;2023-05-09T11:08:28;21.40;99.90
13854;DHT22;6997;51.782;8.824;2023-05-09T11:10:56;21.50;99.90
13854;DHT22;6997;51.782;8.824;2023-05-09T11:13:30;21.70;99.90
13854;DHT22;6997;51.782;8.824;2023-05-09T11:18:28;22.00;99.90
13854;DHT22;6997;51.782;8.824;2023-05-09T11:20:54;21.90;99.90
13854;DHT22;6997;51.782;8.824;2023-05-09T11:23:24;21.70;99.90
13854;DHT22;6997;51.782;8.824;2023-05-09T11:25:50;21.50;99.90
13854;DHT22;6997;51.782;8.824;2023-05-09T11:28:27;21.80;99.90
13854;DHT22;6997;51.782;8.824;2023-05-09T11:30:54;21.90;99.90
13854;DHT22;6997;51.782;8.824;2023-05-09T11:33:35;21.70;99.90
13854;DHT22;6997;51.782;8.824;2023-05-09T11:36:21;21.50;99.90
13854;DHT22;6997;51.782;8.824;2023-05-09T11:39:07;21.20;99.90
13854;DHT22;6997;51.782;8.824;2023-05-09T11:41:43;21.40;99.90
13854;DHT22;6997;51.782;8.824;2023-05-09T11:44:20;21.60;99.90
13854;DHT22;6997;51.782;8.824;2023-05-09T11:46:47;21.70;99.90
13854;DHT22;6997;51.782;8.824;2023-05-09T11:49:13;21.70;99.90
13854;DHT22;6997;51.782;8.824;2023-05-09T11:51:39;21.20;99.90
13854;DHT22;6997;51.782;8.824;2023-05-09T11:56:33;21.20;99.90
13854;DHT22;6997;51.782;8.824;2023-05-09T12:06:18;22.30;99.90
13854;DHT22;6997;51.782;8.824;2023-05-09T12:08:44;22.60;99.90
13854;DHT22;6997;51.782;8.824;2023-05-09T12:11:11;22.70;99.90
13854;DHT22;6997;51.782;8.824;2023-05-09T12:13:48;22.70;99.90
13854;DHT22;6997;51.782;8.824;2023-05-09T12:16:15;22.70;99.90
13854;DHT22;6997;51.782;8.824;2023-05-09T12:18:51;22.60;99.90
13854;DHT22;6997;51.782;8.824;2023-05-09T12:21:18;22.40;99.90
13854;DHT22;6997;51.782;8.824;2023-05-09T12:23:44;21.90;99.90
13854;DHT22;6997;51.782;8.824;2023-05-09T12:28:37;22.10;99.90
13854;DHT22;6997;51.782;8.824;2023-05-09T12:31:04;22.20;99.90
13854;DHT22;6997;51.782;8.824;2023-05-09T12:36:11;22.50;99.90
13854;DHT22;6997;51.782;8.824;2023-05-09T12:38:38;23.50;99.90
13854;DHT22;6997;51.782;8.824;2023-05-09T12:41:07;23.90;99.90
13854;DHT22;6997;51.782;8.824;2023-05-09T12:43:37;23.40;99.90
13854;DHT22;6997;51.782;8.824;2023-05-09T12:46:04;23.80;99.90
13854;DHT22;6997;51.782;8.824;2023-05-09T12:48:36;24.20;99.90
13854;DHT22;6997;51.782;8.824;2023-05-09T12:51:06;24.00;99.90
13854;DHT22;6997;51.782;8.824;2023-05-09T12:53:37;23.40;99.90
13854;DHT22;6997;51.782;8.824;2023-05-09T12:56:11;23.00;99.90
13854;DHT22;6997;51.782;8.824;2023-05-09T12:58:39;23.20;99.90
13854;DHT22;6997;51.782;8.824;2023-05-09T13:01:06;24.00;99.90
13854;DHT22;6997;51.782;8.824;2023-05-09T13:06:10;24.40;99.90
13854;DHT22;6997;51.782;8.824;2023-05-09T13:08:38;24.20;99.90
13854;DHT22;6997;51.782;8.824;2023-05-09T13:11:08;24.20;99.90
13854;DHT22;6997;51.782;8.824;2023-05-09T13:13:38;25.00;99.90
13854;DHT22;6997;51.782;8.824;2023-05-09T13:16:08;25.60;99.90
13854;DHT22;6997;51.782;8.824;2023-05-09T13:18:35;25.90;99.90
13854;DHT22;6997;51.782;8.824;2023-05-09T13:21:02;25.70;99.90
13854;DHT22;6997;51.782;8.824;2023-05-09T23:10:29;16.00;99.90
13854;DHT22;6997;51.782;8.824;2023-05-09T23:12:57;15.90;99.90
13854;DHT22;6997;51.782;8.824;2023-05-09T23:17:49;16.00;99.90
13854;DHT22;6997;51.782;8.824;2023-05-09T23:20:15;16.10;99.90
13854;DHT22;6997;51.782;8.824;2023-05-09T23:22:41;16.00;99.90
13854;DHT22;6997;51.782;8.824;2023-05-09T23:25:08;16.00;99.90
13854;DHT22;6997;51.782;8.824;2023-05-09T23:27:35;16.00;99.90
13854;DHT22;6997;51.782;8.824;2023-05-09T23:32:27;15.70;99.90
13854;DHT22;6997;51.782;8.824;2023-05-09T23:34:54;15.60;99.90
13854;DHT22;6997;51.782;8.824;2023-05-09T23:37:21;15.70;99.90
13854;DHT22;6997;51.782;8.824;2023-05-09T23:39:48;15.70;99.90
13854;DHT22;6997;51.782;8.824;2023-05-09T23:42:14;15.90;99.90
13854;DHT22;6997;51.782;8.824;2023-05-09T23:44:41;15.70;99.90
13854;DHT22;6997;51.782;8.824;2023-05-09T23:47:10;15.60;99.90
